createdAt,value
2018-12-01T00:02:21.783Z,49.90
2018-12-01T00:04:50.497Z,55.50
2018-12-01T00:07:18.364Z,54.43
2018-12-01T00:09:46.052Z,56.00
2018-12-01T00:12:13.807Z,53.83
2018-12-01T00:14:41.535Z,56.27
2018-12-01T00:17:09.219Z,52.90
2018-12-01T00:19:36.996Z,53.73
2018-12-01T00:22:05.120Z,52.53
2018-12-01T00:24:32.805Z,51.83
2018-12-01T00:27:00.512Z,56.67
2018-12-01T00:29:28.219Z,50.27
2018-12-01T00:31:55.950Z,55.17
2018-12-01T00:34:24.682Z,54.47
2018-12-01T00:36:52.358Z,52.00
2018-12-01T00:39:20.064Z,52.90
2018-12-01T00:41:47.763Z,48.47
2018-12-01T00:44:15.449Z,52.47
2018-12-01T00:46:43.223Z,51.80
2018-12-01T00:49:10.963Z,51.13
2018-12-01T00:51:38.650Z,55.07
2018-12-01T00:54:06.329Z,47.37
2018-12-01T00:56:34.071Z,51.77
2018-12-01T00:59:02.780Z,52.30
2018-12-01T01:01:30.499Z,52.30
2018-12-01T01:03:58.167Z,49.93
2018-12-01T01:06:25.855Z,53.03
2018-12-01T01:08:53.571Z,50.20
2018-12-01T01:11:21.255Z,52.30
2018-12-01T01:13:48.935Z,56.00
2018-12-01T01:16:16.736Z,49.07
2018-12-01T01:18:44.460Z,54.83
2018-12-01T01:21:12.194Z,54.43
2018-12-01T01:23:39.880Z,54.93
2018-12-01T01:26:07.556Z,49.10
2018-12-01T01:28:35.324Z,50.47
2018-12-01T01:31:03.071Z,57.43
2018-12-01T01:33:30.840Z,57.03
2018-12-01T01:35:58.608Z,60.63
2018-12-01T01:38:26.342Z,57.57
2018-12-01T01:40:59.444Z,59.10
2018-12-01T01:43:27.107Z,58.83
2018-12-01T01:45:54.812Z,62.47
2018-12-01T01:48:22.563Z,64.33
2018-12-01T01:50:50.303Z,66.50
2018-12-01T01:53:17.968Z,58.57
2018-12-01T01:55:45.733Z,61.90
2018-12-01T01:58:13.547Z,64.43
2018-12-01T02:00:41.282Z,58.30
2018-12-01T02:03:09.002Z,55.80
2018-12-01T02:05:37.724Z,61.20
2018-12-01T02:08:05.485Z,61.50
2018-12-01T02:10:34.172Z,59.50
2018-12-01T02:13:01.895Z,63.83
2018-12-01T02:15:29.579Z,67.20
2018-12-01T02:17:57.255Z,58.27
2018-12-01T02:20:25.032Z,53.97
2018-12-01T02:22:52.738Z,57.73
2018-12-01T02:25:20.460Z,60.77
2018-12-01T02:27:48.180Z,64.50
2018-12-01T02:30:16.401Z,61.33
2018-12-01T02:32:44.185Z,58.73
2018-12-01T02:35:12.671Z,63.47
2018-12-01T02:37:40.405Z,63.47
2018-12-01T02:40:08.779Z,57.87
2018-12-01T02:42:36.564Z,51.33
2018-12-01T02:45:09.977Z,61.03
2018-12-01T02:47:37.717Z,62.57
2018-12-01T02:50:06.529Z,67.33
2018-12-01T02:52:34.265Z,54.53
2018-12-01T02:55:02.018Z,61.87
2018-12-01T02:57:29.747Z,64.23
2018-12-01T02:59:57.460Z,70.83
2018-12-01T03:02:26.086Z,71.67
2018-12-01T03:04:53.772Z,71.33
2018-12-01T03:07:21.563Z,72.07
2018-12-01T03:09:49.329Z,69.50
2018-12-01T03:12:17.118Z,70.20
2018-12-01T03:14:44.856Z,69.73
2018-12-01T03:17:12.579Z,68.83
2018-12-01T03:19:40.251Z,69.10
2018-12-01T03:22:07.912Z,64.87
2018-12-01T03:24:35.583Z,68.53
2018-12-01T03:27:03.659Z,60.57
2018-12-01T03:29:31.420Z,64.23
2018-12-01T03:31:59.072Z,64.30
2018-12-01T03:34:26.771Z,67.10
2018-12-01T03:36:54.567Z,67.37
2018-12-01T03:39:22.301Z,80.33
2018-12-01T03:41:50.031Z,65.50
2018-12-01T03:44:17.710Z,65.90
2018-12-01T03:46:45.493Z,76.70
2018-12-01T03:49:13.248Z,77.23
2018-12-01T03:51:40.971Z,75.87
2018-12-01T03:54:08.680Z,77.57
2018-12-01T03:56:36.443Z,71.00
2018-12-01T03:59:04.564Z,74.03
2018-12-01T04:01:32.240Z,76.13
2018-12-01T04:03:59.944Z,84.87
2018-12-01T04:06:28.717Z,81.97
2018-12-01T04:08:56.455Z,69.17
2018-12-01T04:11:24.152Z,81.30
2018-12-01T04:13:51.915Z,75.60
2018-12-01T04:16:19.668Z,77.10
2018-12-01T04:18:47.415Z,80.03
2018-12-01T04:21:15.093Z,88.43
2018-12-01T04:23:42.785Z,95.93
2018-12-01T04:26:10.499Z,73.93
2018-12-01T04:28:38.171Z,83.40
2018-12-01T04:31:05.860Z,79.53
2018-12-01T04:33:33.612Z,86.90
2018-12-01T04:36:01.264Z,76.40
2018-12-01T04:38:28.971Z,78.30
2018-12-01T04:40:56.683Z,74.40
2018-12-01T04:43:24.400Z,78.83
2018-12-01T04:45:52.132Z,86.50
2018-12-01T04:48:20.783Z,82.40
2018-12-01T04:50:48.493Z,84.33
2018-12-01T04:53:16.211Z,96.63
2018-12-01T04:55:43.932Z,90.77
2018-12-01T04:58:11.638Z,89.67
2018-12-01T05:00:39.345Z,92.00
2018-12-01T05:03:07.067Z,86.73
2018-12-01T05:05:34.743Z,96.77
2018-12-01T05:08:02.512Z,91.73
2018-12-01T05:10:30.248Z,79.50
2018-12-01T05:12:57.960Z,82.40
2018-12-01T05:15:25.797Z,76.40
2018-12-01T05:17:53.476Z,81.50
2018-12-01T05:20:22.616Z,76.17
2018-12-01T05:22:50.812Z,73.10
2018-12-01T05:25:18.524Z,85.43
2018-12-01T05:27:46.303Z,84.80
2018-12-01T05:30:14.052Z,75.93
2018-12-01T05:32:41.803Z,84.33
2018-12-01T05:35:10.296Z,73.00
2018-12-01T05:37:38.015Z,69.47
2018-12-01T05:40:07.288Z,72.33
2018-12-01T05:42:35.040Z,82.40
2018-12-01T05:45:02.783Z,81.83
2018-12-01T05:47:30.503Z,72.37
2018-12-01T05:49:59.216Z,81.10
2018-12-01T05:52:26.928Z,76.87
2018-12-01T05:54:54.619Z,86.03
2018-12-01T05:57:22.283Z,80.53
2018-12-01T05:59:49.963Z,82.43
2018-12-01T06:02:17.706Z,78.43
2018-12-01T06:04:45.449Z,84.63
2018-12-01T06:07:13.154Z,89.67
2018-12-01T06:09:40.836Z,80.10
2018-12-01T06:12:08.562Z,85.53
2018-12-01T06:14:36.234Z,93.57
2018-12-01T06:17:03.925Z,79.73
2018-12-01T06:19:31.654Z,81.13
2018-12-01T06:21:59.360Z,73.73
2018-12-01T06:24:27.112Z,88.27
2018-12-01T06:26:54.838Z,87.53
2018-12-01T06:29:22.523Z,84.83
2018-12-01T06:31:50.316Z,90.83
2018-12-01T06:34:18.080Z,80.27
2018-12-01T06:36:45.787Z,87.70
2018-12-01T06:39:13.507Z,88.73
2018-12-01T06:41:41.257Z,83.53
2018-12-01T06:44:08.978Z,88.37
2018-12-01T06:46:36.692Z,80.50
2018-12-01T06:49:04.468Z,80.53
2018-12-01T06:51:32.212Z,86.10
2018-12-01T06:53:59.975Z,87.90
2018-12-01T06:56:27.698Z,74.93
2018-12-01T06:58:55.404Z,85.60
2018-12-01T07:01:23.135Z,78.90
2018-12-01T07:03:50.865Z,83.93
2018-12-01T07:06:18.559Z,84.00
2018-12-01T07:08:46.261Z,77.93
2018-12-01T07:11:13.983Z,83.13
2018-12-01T07:13:41.652Z,80.93
2018-12-01T07:16:09.379Z,78.57
2018-12-01T07:18:42.912Z,79.87
2018-12-01T07:21:10.628Z,90.87
2018-12-01T07:23:38.354Z,75.33
2018-12-01T07:26:06.115Z,86.63
2018-12-01T07:28:33.785Z,75.03
2018-12-01T07:31:01.523Z,71.40
2018-12-01T07:33:29.237Z,84.63
2018-12-01T07:35:56.959Z,90.43
2018-12-01T07:38:24.623Z,79.27
2018-12-01T07:40:52.560Z,82.40
2018-12-01T07:43:20.239Z,76.10
2018-12-01T07:45:47.944Z,76.37
2018-12-01T07:48:15.752Z,71.30
2018-12-01T07:50:43.475Z,71.37
2018-12-01T07:53:11.203Z,75.77
2018-12-01T07:55:38.900Z,74.57
2018-12-01T07:58:06.638Z,67.27
2018-12-01T08:00:34.313Z,79.83
2018-12-01T08:03:02.075Z,82.63
2018-12-01T08:05:29.756Z,86.60
2018-12-01T08:07:57.475Z,88.33
2018-12-01T08:10:25.190Z,79.47
2018-12-01T08:12:52.915Z,85.70
2018-12-01T08:15:20.583Z,73.60
2018-12-01T08:17:48.264Z,84.67
2018-12-01T08:20:16.351Z,77.17
2018-12-01T08:22:44.119Z,75.27
2018-12-01T08:25:13.502Z,67.60
2018-12-01T08:27:41.280Z,70.27
2018-12-01T08:30:10.383Z,72.67
2018-12-01T08:32:38.099Z,70.53
2018-12-01T08:35:05.828Z,73.27
2018-12-01T08:37:33.547Z,74.30
2018-12-01T08:40:02.255Z,77.50
2018-12-01T08:42:29.975Z,71.93
2018-12-01T08:44:57.684Z,67.73
2018-12-01T08:47:25.428Z,64.03
2018-12-01T08:49:53.160Z,78.23
2018-12-01T08:52:20.860Z,70.03
2018-12-01T08:54:48.622Z,73.33
2018-12-01T08:57:16.377Z,69.43
2018-12-01T08:59:44.113Z,68.63
2018-12-01T09:02:11.796Z,63.97
2018-12-01T09:04:39.563Z,61.90
2018-12-01T09:07:07.348Z,64.40
2018-12-01T09:09:35.112Z,66.37
2018-12-01T09:12:02.880Z,68.37
2018-12-01T09:14:30.627Z,69.70
2018-12-01T09:16:58.428Z,67.57
2018-12-01T09:19:26.156Z,69.10
2018-12-01T09:21:53.932Z,63.77
2018-12-01T09:24:21.659Z,64.37
2018-12-01T09:26:49.390Z,68.43
2018-12-01T09:29:17.087Z,66.70
2018-12-01T09:31:44.758Z,72.90
2018-12-01T09:34:12.414Z,72.87
2018-12-01T09:36:40.101Z,71.17
2018-12-01T09:39:07.871Z,76.70
2018-12-01T09:41:35.629Z,64.10
2018-12-01T09:44:03.428Z,68.77
2018-12-01T09:46:31.160Z,70.73
2018-12-01T09:48:58.920Z,70.10
2018-12-01T09:51:26.647Z,76.07
2018-12-01T09:53:54.327Z,76.60
2018-12-01T09:56:22.109Z,63.27
2018-12-01T09:58:49.834Z,66.57
2018-12-01T10:01:17.558Z,65.13
2018-12-01T10:03:45.271Z,63.47
2018-12-01T10:06:13.026Z,70.20
2018-12-01T10:08:40.784Z,66.80
2018-12-01T10:11:08.500Z,61.03
2018-12-01T10:13:36.248Z,62.30
2018-12-01T10:16:03.983Z,71.20
2018-12-01T10:18:31.659Z,60.43
2018-12-01T10:20:59.341Z,64.30
2018-12-01T10:23:27.115Z,61.77
2018-12-01T10:25:54.879Z,56.60
2018-12-01T10:28:22.618Z,62.67
2018-12-01T10:30:50.317Z,62.87
2018-12-01T10:33:18.035Z,55.00
2018-12-01T10:35:45.776Z,60.93
2018-12-01T10:38:14.419Z,63.57
2018-12-01T10:40:42.188Z,57.30
2018-12-01T10:43:09.935Z,59.57
2018-12-01T10:45:37.788Z,57.60
2018-12-01T10:48:06.328Z,56.20
2018-12-01T10:50:34.065Z,55.13
2018-12-01T10:53:01.794Z,58.47
2018-12-01T10:55:29.956Z,52.67
2018-12-01T10:57:59.228Z,51.33
2018-12-01T11:00:32.622Z,52.80
2018-12-01T11:03:04.863Z,55.53
2018-12-01T11:05:33.092Z,52.43
2018-12-01T11:08:00.796Z,56.00
2018-12-01T11:10:28.556Z,51.10
2018-12-01T11:12:56.299Z,49.70
2018-12-01T11:15:24.000Z,57.37
2018-12-01T11:17:51.739Z,58.17
2018-12-01T11:20:19.488Z,56.70
2018-12-01T11:22:47.159Z,55.40
2018-12-01T11:25:14.965Z,52.43
2018-12-01T11:27:43.687Z,53.20
2018-12-01T11:30:13.071Z,52.07
2018-12-01T11:32:40.811Z,54.47
2018-12-01T11:35:08.612Z,54.73
2018-12-01T11:37:36.556Z,51.60
2018-12-01T11:40:08.095Z,48.40
2018-12-01T11:42:35.852Z,50.43
2018-12-01T11:45:03.695Z,52.30
2018-12-01T11:47:32.384Z,54.33
2018-12-01T11:50:01.070Z,53.10
2018-12-01T11:52:28.807Z,51.97
2018-12-01T11:54:56.540Z,55.67
2018-12-01T11:57:24.268Z,48.53
2018-12-01T11:59:52.015Z,52.53
2018-12-01T12:02:19.735Z,50.20
2018-12-01T12:04:47.435Z,50.43
2018-12-01T12:08:20.546Z,48.10
2018-12-01T12:10:48.283Z,57.33
2018-12-01T12:13:16.001Z,52.47
2018-12-01T12:15:43.777Z,54.30
2018-12-01T12:18:11.535Z,52.20
2018-12-01T12:20:39.286Z,49.17
2018-12-01T12:23:07.264Z,49.07
2018-12-01T12:25:35.046Z,48.53
2018-12-01T12:28:02.808Z,48.23
2018-12-01T12:30:30.507Z,50.93
2018-12-01T12:32:58.373Z,49.63
2018-12-01T12:35:26.132Z,49.30
2018-12-01T12:37:53.852Z,51.03
2018-12-01T12:40:23.047Z,52.00
2018-12-01T12:42:51.215Z,51.70
2018-12-01T12:45:18.948Z,52.77
2018-12-01T12:47:46.647Z,46.37
2018-12-01T12:50:14.865Z,56.23
2018-12-01T12:52:43.469Z,50.10
2018-12-01T12:55:11.167Z,54.97
2018-12-01T12:57:38.923Z,57.00
2018-12-01T13:00:15.904Z,54.23
2018-12-01T13:02:44.368Z,63.00
2018-12-01T13:05:13.575Z,55.77
2018-12-01T13:07:41.331Z,56.17
2018-12-01T13:10:09.831Z,54.70
2018-12-01T13:12:37.649Z,53.97
2018-12-01T13:15:06.624Z,53.00
2018-12-01T13:17:34.323Z,53.97
2018-12-01T13:20:02.024Z,48.47
2018-12-01T13:22:29.784Z,53.87
2018-12-01T13:24:57.541Z,53.20
2018-12-01T13:27:25.259Z,49.87
2018-12-01T13:29:53.004Z,52.80
2018-12-01T13:32:20.728Z,47.90
2018-12-01T13:34:48.504Z,49.13
2018-12-01T13:37:18.342Z,54.37
2018-12-01T13:39:43.961Z,60.17
2018-12-01T13:42:11.652Z,53.20
2018-12-01T13:44:39.311Z,54.70
2018-12-01T13:47:06.989Z,54.67
2018-12-01T13:49:34.708Z,67.60
2018-12-01T13:52:02.411Z,65.93
2018-12-01T13:54:30.118Z,52.37
2018-12-01T13:56:57.835Z,58.03
2018-12-01T13:59:25.503Z,53.63
2018-12-01T14:01:53.199Z,52.43
2018-12-01T14:04:20.907Z,52.90
2018-12-01T14:06:48.640Z,60.23
2018-12-01T14:09:16.364Z,58.37
2018-12-01T14:11:44.136Z,52.70
2018-12-01T14:14:11.897Z,54.73
2018-12-01T14:16:39.639Z,51.07
2018-12-01T14:19:07.357Z,51.20
2018-12-01T14:21:35.166Z,48.57
2018-12-01T14:24:02.843Z,44.10
2018-12-01T14:26:30.620Z,46.97
2018-12-01T14:28:58.384Z,51.53
2018-12-01T14:31:26.148Z,47.77
2018-12-01T14:33:53.887Z,46.63
2018-12-01T14:36:21.576Z,52.03
2018-12-01T14:38:49.327Z,54.37
2018-12-01T14:41:17.012Z,54.13
2018-12-01T14:43:44.734Z,60.37
2018-12-01T14:46:12.418Z,53.13
2018-12-01T14:48:40.151Z,53.27
2018-12-01T14:51:07.843Z,48.87
2018-12-01T14:53:35.604Z,81.97
2018-12-01T14:56:03.294Z,56.53
2018-12-01T14:58:31.065Z,54.73
2018-12-01T15:00:58.832Z,50.17
2018-12-01T15:03:26.576Z,57.90
2018-12-01T15:05:54.311Z,47.77
2018-12-01T15:08:21.979Z,61.33
2018-12-01T15:10:49.723Z,50.57
2018-12-01T15:13:17.424Z,54.10
2018-12-01T15:15:45.155Z,51.27
2018-12-01T15:18:12.833Z,59.50
2018-12-01T15:20:40.555Z,56.67
2018-12-01T15:23:08.295Z,62.97
2018-12-01T15:25:36.017Z,56.73
2018-12-01T15:28:03.697Z,58.37
2018-12-01T15:30:31.475Z,61.40
2018-12-01T15:32:59.858Z,63.23
2018-12-01T15:35:27.640Z,54.57
2018-12-01T15:37:55.425Z,57.63
2018-12-01T15:40:23.126Z,56.17
2018-12-01T15:42:50.829Z,65.27
2018-12-01T15:45:20.959Z,58.20
2018-12-01T15:47:48.693Z,65.07
2018-12-01T15:50:17.916Z,57.77
2018-12-01T15:52:48.558Z,59.30
2018-12-01T15:55:17.284Z,56.00
2018-12-01T15:57:45.017Z,62.60
2018-12-01T16:00:13.381Z,68.93
2018-12-01T16:02:42.168Z,59.03
2018-12-01T16:05:10.444Z,56.27
2018-12-01T16:07:39.156Z,58.90
2018-12-01T16:10:10.346Z,57.70
2018-12-01T16:12:38.071Z,59.67
2018-12-01T16:15:08.139Z,60.53
2018-12-01T16:17:35.887Z,66.67
2018-12-01T16:20:04.099Z,65.90
2018-12-01T16:22:32.619Z,61.37
2018-12-01T16:25:00.367Z,64.47
2018-12-01T16:27:28.080Z,60.93
2018-12-01T16:29:55.857Z,61.30
2018-12-01T16:32:23.644Z,62.93
2018-12-01T16:34:51.335Z,60.63
2018-12-01T16:37:18.995Z,61.53
2018-12-01T16:39:46.736Z,65.57
2018-12-01T16:42:14.415Z,55.43
2018-12-01T16:44:42.116Z,57.77
2018-12-01T16:47:09.842Z,62.20
2018-12-01T16:49:37.544Z,57.03
2018-12-01T16:52:05.835Z,57.67
2018-12-01T16:54:33.569Z,62.97
2018-12-01T16:57:01.344Z,55.27
2018-12-01T16:59:29.077Z,59.37
2018-12-01T17:01:56.773Z,55.93
2018-12-01T17:04:24.533Z,50.67
2018-12-01T17:06:52.316Z,55.93
2018-12-01T17:09:20.027Z,49.20
2018-12-01T17:11:48.756Z,65.23
2018-12-01T17:14:16.540Z,54.13
2018-12-01T17:16:44.392Z,63.40
2018-12-01T17:19:12.151Z,59.67
2018-12-01T17:21:41.900Z,57.23
2018-12-01T17:24:09.621Z,51.03
2018-12-01T17:26:37.358Z,47.27
2018-12-01T17:29:05.564Z,57.43
2018-12-01T17:31:33.317Z,55.10
2018-12-01T17:34:01.018Z,53.10
2018-12-01T17:36:28.780Z,58.63
2018-12-01T17:38:56.516Z,50.63
2018-12-01T17:41:27.232Z,54.53
2018-12-01T17:43:55.738Z,48.70
2018-12-01T17:46:23.459Z,57.63
2018-12-01T17:48:51.184Z,52.83
2018-12-01T17:51:18.904Z,51.67
2018-12-01T17:53:47.519Z,53.67
2018-12-01T17:56:15.259Z,56.47
2018-12-01T17:58:42.998Z,56.20
2018-12-01T18:01:10.717Z,52.77
2018-12-01T18:03:38.471Z,50.93
2018-12-01T18:06:07.243Z,49.23
2018-12-01T18:08:35.920Z,52.00
2018-12-01T18:11:03.663Z,43.73
2018-12-01T18:13:32.390Z,46.63
2018-12-01T18:16:00.144Z,45.33
2018-12-01T18:18:27.918Z,48.03
2018-12-01T18:20:55.662Z,75.00
2018-12-01T18:23:23.403Z,60.70
2018-12-01T18:25:51.864Z,51.27
2018-12-01T18:28:20.829Z,43.50
2018-12-01T18:30:48.555Z,52.13
2018-12-01T18:33:18.204Z,50.23
2018-12-01T18:35:45.923Z,44.97
2018-12-01T18:38:13.599Z,44.30
2018-12-01T18:40:41.378Z,37.17
2018-12-01T18:43:09.639Z,46.20
2018-12-01T18:45:38.177Z,40.65
2018-12-01T18:48:06.912Z,42.77
2018-12-01T18:50:34.608Z,46.65
2018-12-01T18:53:02.960Z,44.63
2018-12-01T18:55:31.475Z,42.93
2018-12-01T18:57:59.276Z,41.80
2018-12-01T19:00:28.075Z,41.10
2018-12-01T19:02:56.791Z,42.50
2018-12-01T19:05:24.523Z,47.93
2018-12-01T19:07:52.219Z,41.43
2018-12-01T19:10:19.968Z,43.03
2018-12-01T19:12:47.740Z,45.83
2018-12-01T19:15:16.006Z,42.60
2018-12-01T19:17:44.299Z,45.20
2018-12-01T19:20:12.605Z,35.93
2018-12-01T19:22:41.363Z,43.27
2018-12-01T19:25:09.825Z,43.47
2018-12-01T19:27:37.498Z,40.00
2018-12-01T19:30:06.963Z,39.40
2018-12-01T19:32:34.760Z,43.80
2018-12-01T19:35:02.520Z,38.03
2018-12-01T19:37:30.208Z,39.37
2018-12-01T19:39:57.936Z,39.83
2018-12-01T19:42:25.650Z,41.73
2018-12-01T19:44:53.380Z,43.00
2018-12-01T19:47:21.191Z,42.43
2018-12-01T19:49:48.920Z,38.63
2018-12-01T19:52:16.671Z,47.40
2018-12-01T19:54:44.436Z,39.83
2018-12-01T19:57:12.175Z,42.30
2018-12-01T19:59:39.912Z,39.50
2018-12-01T20:02:07.648Z,35.87
2018-12-01T20:04:35.385Z,37.83
2018-12-01T20:07:03.075Z,35.07
2018-12-01T20:09:30.829Z,37.60
2018-12-01T20:11:58.588Z,34.70
2018-12-01T20:14:26.284Z,36.20
2018-12-01T20:16:54.860Z,36.03
2018-12-01T20:19:22.624Z,37.77
2018-12-01T20:21:50.354Z,38.60
2018-12-01T20:24:18.124Z,40.33
2018-12-01T20:26:45.859Z,36.77
2018-12-01T20:29:13.560Z,35.60
2018-12-01T20:31:41.279Z,44.30
2018-12-01T20:34:09.124Z,41.63
2018-12-01T20:36:38.099Z,37.17
2018-12-01T20:39:08.848Z,41.63
2018-12-01T20:41:38.612Z,38.03
2018-12-01T20:44:06.358Z,30.63
2018-12-01T20:46:34.057Z,40.40
2018-12-01T20:49:01.782Z,34.63
2018-12-01T20:51:29.483Z,32.73
2018-12-01T20:53:57.232Z,38.83
2018-12-01T20:56:25.859Z,36.10
2018-12-01T20:58:53.611Z,39.30
2018-12-01T21:01:21.349Z,45.00
2018-12-01T21:03:50.036Z,39.73
2018-12-01T21:06:17.796Z,34.80
2018-12-01T21:08:45.543Z,37.10
2018-12-01T21:11:13.796Z,38.27
2018-12-01T21:13:42.535Z,36.60
2018-12-01T21:16:10.280Z,36.47
2018-12-01T21:18:37.967Z,38.40
2018-12-01T21:21:05.706Z,38.50
2018-12-01T21:23:33.472Z,38.87
2018-12-01T21:26:01.158Z,34.97
2018-12-01T21:28:28.870Z,31.47
2018-12-01T21:30:56.616Z,30.57
2018-12-01T21:33:27.166Z,37.67
2018-12-01T21:35:54.893Z,34.10
2018-12-01T21:38:22.637Z,33.73
2018-12-01T21:40:50.379Z,36.43
2018-12-01T21:43:18.035Z,36.20
2018-12-01T21:45:45.850Z,34.00
2018-12-01T21:48:13.901Z,35.33
2018-12-01T21:50:42.102Z,33.85
2018-12-01T21:53:10.978Z,38.23
2018-12-01T21:55:38.744Z,31.47
2018-12-01T21:58:06.835Z,31.20
2018-12-01T22:00:34.617Z,36.10
2018-12-01T22:03:03.255Z,32.83
2018-12-01T22:05:34.109Z,32.57
2018-12-01T22:08:01.827Z,37.43
2018-12-01T22:10:29.583Z,30.87
2018-12-01T22:12:57.282Z,33.20
2018-12-01T22:15:25.033Z,30.63
2018-12-01T22:17:52.800Z,33.13
2018-12-01T22:20:21.136Z,34.13
2018-12-01T22:22:49.067Z,30.53
2018-12-01T22:25:16.775Z,36.60
2018-12-01T22:27:44.498Z,43.30
2018-12-01T22:30:14.796Z,33.63
2018-12-01T22:32:42.704Z,40.00
2018-12-01T22:35:13.154Z,32.87
2018-12-01T22:37:40.874Z,33.37
2018-12-01T22:40:26.103Z,32.23
2018-12-01T22:42:56.255Z,33.90
2018-12-01T22:45:23.983Z,32.20
2018-12-01T22:47:51.789Z,31.17
2018-12-01T22:50:19.959Z,41.80
2018-12-01T22:52:47.880Z,37.87
2018-12-01T22:55:16.436Z,37.40
2018-12-01T22:57:44.884Z,34.10
2018-12-01T23:00:14.328Z,38.30
2018-12-01T23:02:42.085Z,34.73
2018-12-01T23:05:09.835Z,40.40
2018-12-01T23:07:37.559Z,40.10
2018-12-01T23:10:08.028Z,38.97
2018-12-01T23:12:35.735Z,40.00
2018-12-01T23:15:03.644Z,38.27
2018-12-01T23:17:31.379Z,39.30
2018-12-01T23:19:59.067Z,41.63
2018-12-01T23:22:26.732Z,40.73
2018-12-01T23:24:54.545Z,39.43
2018-12-01T23:27:22.268Z,36.53
2018-12-01T23:29:49.983Z,39.87
2018-12-01T23:32:17.709Z,35.93
2018-12-01T23:34:45.436Z,41.40
2018-12-01T23:37:13.232Z,38.53
2018-12-01T23:39:40.935Z,33.73
2018-12-01T23:42:08.606Z,36.03
2018-12-01T23:44:36.312Z,35.20
2018-12-01T23:47:04.108Z,42.80
2018-12-01T23:49:31.832Z,38.30
2018-12-01T23:51:59.587Z,39.43
2018-12-01T23:54:27.354Z,39.33
2018-12-01T23:56:55.128Z,36.13
2018-12-01T23:59:22.913Z,34.70
